SBPB/PHB METAR and TAF weather

Enter ICAO airport designator
Station Type Date Time Source
SBPB METAR 2019/10/13 19:45 UTC NOAA

SBPB 131945Z 08016KT CAVOK 29/22 Q1008


Station Type Date Time Source
SBPB Decoded METAR 2019/10/13 19:45 UTC NOAA

Parnaiba Aeroporto , Brazil (SBPB) 02-55S 041-45W
Oct 13, 2019 - 03:45 PM EDT / 2019.10.13 1945 UTC
Wind: from the E (080 degrees) at 18 MPH (16 KT):0
Visibility: greater than 7 mile(s):0
Temperature: 84 F (29 C)
Dew Point: 71 F (22 C)
Relative Humidity: 65%
Pressure (altimeter): 29.77 in. Hg (1008 hPa)
ob: SBPB 131945Z 08016KT CAVOK 29/22 Q1008
cycle: 20

Station Type Date Time Source
SBPB TAF 2019/10/14 06:45 UTC NOAA

TAF SBPB 140400Z 1406/1418 07020KT CAVOK TN25/1406Z TX32/1415Z
BECMG 1411/1413 SCT020
RMK PEH

Example: see airport list